Portada
METAR-TAF:

METAR-TAF

Aeroports :

Port Stanley, Illes Malvines

latitud: 51-49S, longitud: 058-27W, altitud: 74 m

Observació

L'informe es va fer fa 37 minuts, a les 13:50 UTC
Vent 20 kt del Oest
Temperatura 16°C
Humitat 55%
Pressió 1009 hPa
Visibilitat 10 km o més
Escasses núvols a una alçada de 3000 ft
Cel ennuvolat a una alçada de 8000 ft

METAR: EGYP 051350Z 26020KT 9999 FEW030 BKN080 16/07 Q1009 NOSIG

Hora: 11:27 (14:27 UTC)

Pronòstic

L'informe es va fer fa 4 hores i 26 minuts, a les 10:01 UTC
Pronòstic vàlid del 05 a les 12 UTC al 06 a les 06 UTC
Vent 22 kt del Oest/Sud-Oest amb ràfegues de 32 kt
Visibilitat 10 km o més
Núvols disperses a una alçada de 3000 ft
Temporalment
l' 05 a les 12 UTC al 05 a les 14 UTC
Cel ennuvolat a una alçada de 2000 ft
Evolucionant progressivament
l' 05 a les 22 UTC al 06 a les 01 UTC
Vent 15 kt del Oest

TAF: EGYP 051001Z 0512/0606 24022G32KT 9999 SCT030 TEMPO 0512/0514 BKN020 BECMG 0522/0601 26015KT

Observacions i pronòstics meteorològics de més de 4000 aeroports (METAR i TAF).

Les estacions disponibles són els punts grocs i vermells al mapa.

Posi el ratolí al punt desitjat per veure el nom de l'estació.

Feu clic per veure les observacions i els pronòstics meteorològics.

Per canviar el mapa: feu clic els botons verds amb una creu de color negre per apropar; al botó verd amb un guió per allunyar la imatge; o en les fletxes verdes per a mapes adjacents.


METAR-TAF: